createdAt,value
2017-04-12T00:00:33.510Z,0
2017-04-12T00:01:14.089Z,0
2017-04-12T00:01:54.666Z,0
2017-04-12T00:02:35.282Z,0
2017-04-12T00:03:15.827Z,0
2017-04-12T00:03:56.419Z,0
2017-04-12T00:04:36.998Z,0
2017-04-12T00:05:17.584Z,0
2017-04-12T00:05:58.162Z,0
2017-04-12T00:06:38.746Z,0
2017-04-12T00:07:19.324Z,0
2017-04-12T00:07:59.899Z,0
2017-04-12T00:08:40.484Z,0
2017-04-12T00:09:21.067Z,0
2017-04-12T00:10:01.648Z,0
2017-04-12T00:10:42.234Z,0
2017-04-12T00:11:22.812Z,0
2017-04-12T00:12:03.422Z,0
2017-04-12T00:12:43.977Z,0
2017-04-12T00:13:24.555Z,0
2017-04-12T00:14:05.143Z,0
2017-04-12T00:14:45.728Z,0
2017-04-12T00:15:26.310Z,0
2017-04-12T00:16:06.890Z,0
2017-04-12T00:16:47.457Z,0
2017-04-12T00:17:28.036Z,0
2017-04-12T00:18:08.598Z,0
2017-04-12T00:18:49.178Z,0
2017-04-12T00:19:29.763Z,0
2017-04-12T00:20:10.340Z,0
2017-04-12T00:20:50.932Z,0
2017-04-12T00:21:31.504Z,0
2017-04-12T00:22:12.066Z,0
2017-04-12T00:22:52.646Z,0
2017-04-12T00:23:33.217Z,0
2017-04-12T00:24:13.801Z,0
2017-04-12T00:24:54.377Z,0
2017-04-12T00:25:36.043Z,0
2017-04-12T00:26:16.608Z,0
2017-04-12T00:26:57.186Z,0
2017-04-12T00:27:37.767Z,0
2017-04-12T00:28:18.354Z,0
2017-04-12T00:28:58.935Z,0
2017-04-12T00:29:39.508Z,0
2017-04-12T00:30:20.091Z,0
2017-04-12T00:31:00.665Z,0
2017-04-12T00:31:41.254Z,0
2017-04-12T00:32:21.832Z,0
2017-04-12T00:33:02.422Z,0
2017-04-12T00:33:43.009Z,0
2017-04-12T00:34:23.582Z,0
2017-04-12T00:35:04.166Z,0
2017-04-12T00:35:44.741Z,0
2017-04-12T00:36:25.314Z,0
2017-04-12T00:37:05.900Z,0
2017-04-12T00:37:46.482Z,0
2017-04-12T00:38:27.063Z,0
2017-04-12T00:39:07.633Z,0
2017-04-12T00:39:48.206Z,0
2017-04-12T00:40:28.785Z,0
2017-04-12T00:41:09.361Z,0
2017-04-12T00:41:49.939Z,0
2017-04-12T00:42:30.519Z,0
2017-04-12T00:43:11.099Z,0
2017-04-12T00:43:51.677Z,0
2017-04-12T00:44:32.265Z,0
2017-04-12T00:45:12.842Z,0
2017-04-12T00:45:53.419Z,0
2017-04-12T00:46:34.001Z,0
2017-04-12T00:47:14.587Z,0
2017-04-12T00:47:55.165Z,0
2017-04-12T00:48:35.757Z,0
2017-04-12T00:49:16.339Z,0
2017-04-12T00:49:56.926Z,0
2017-04-12T00:50:37.506Z,0
2017-04-12T00:51:18.084Z,0
2017-04-12T00:51:58.673Z,0
2017-04-12T00:52:39.249Z,0
2017-04-12T00:53:19.826Z,0
2017-04-12T00:54:00.415Z,0
2017-04-12T00:54:40.989Z,0
2017-04-12T00:55:21.579Z,0
2017-04-12T00:56:02.159Z,0
2017-04-12T00:56:42.741Z,0
2017-04-12T00:57:23.328Z,0
2017-04-12T00:58:03.899Z,0
2017-04-12T00:58:44.480Z,0
2017-04-12T00:59:35.725Z,0
2017-04-12T01:00:16.305Z,0
2017-04-12T01:01:11.722Z,0
2017-04-12T01:01:52.305Z,0
2017-04-12T01:02:32.926Z,0
2017-04-12T01:03:13.471Z,0
2017-04-12T01:03:54.054Z,0
2017-04-12T01:04:34.646Z,0
2017-04-12T01:05:15.224Z,0
2017-04-12T01:05:57.236Z,0
2017-04-12T01:06:37.062Z,0
2017-04-12T01:07:17.630Z,0
2017-04-12T01:07:58.218Z,0
2017-04-12T01:08:38.799Z,0
2017-04-12T01:09:19.384Z,0
2017-04-12T01:09:59.963Z,0
2017-04-12T01:10:40.544Z,0
2017-04-12T01:11:21.127Z,0
2017-04-12T01:12:01.714Z,0
2017-04-12T01:12:42.301Z,0
2017-04-12T01:13:22.870Z,0
2017-04-12T01:14:03.439Z,0
2017-04-12T01:14:44.019Z,0
2017-04-12T01:15:24.609Z,0
2017-04-12T01:16:05.188Z,0
2017-04-12T01:16:45.772Z,0
2017-04-12T01:17:26.349Z,0
2017-04-12T01:18:06.922Z,0
2017-04-12T01:18:47.515Z,0
2017-04-12T01:19:28.094Z,0
2017-04-12T01:20:08.678Z,0
2017-04-12T01:20:49.265Z,0
2017-04-12T01:21:29.843Z,0
2017-04-12T01:22:10.429Z,0
2017-04-12T01:22:51.017Z,0
2017-04-12T01:23:31.597Z,0
2017-04-12T01:24:12.178Z,0
2017-04-12T01:24:52.759Z,0
2017-04-12T01:25:33.340Z,0
2017-04-12T01:26:13.921Z,0
2017-04-12T01:26:54.503Z,0
2017-04-12T01:27:35.086Z,0
2017-04-12T01:28:15.662Z,0
2017-04-12T01:28:56.243Z,0
2017-04-12T01:29:36.830Z,0
2017-04-12T01:30:17.404Z,0
2017-04-12T01:30:57.994Z,0
2017-04-12T01:31:38.562Z,0
2017-04-12T01:32:19.146Z,0
2017-04-12T01:32:59.722Z,0
2017-04-12T01:33:40.311Z,0
2017-04-12T01:34:20.890Z,0
2017-04-12T01:35:01.463Z,0
2017-04-12T01:35:42.047Z,0
2017-04-12T01:36:22.629Z,0
2017-04-12T01:37:03.209Z,0
2017-04-12T01:37:43.799Z,0
2017-04-12T01:38:24.375Z,0
2017-04-12T01:39:04.960Z,0
2017-04-12T01:39:45.537Z,0
2017-04-12T01:42:03.481Z,0
2017-04-12T01:42:44.050Z,0
2017-04-12T01:43:24.630Z,0
2017-04-12T01:44:05.208Z,0
2017-04-12T01:44:45.794Z,0
2017-04-12T01:45:26.382Z,0
2017-04-12T01:46:06.959Z,0
2017-04-12T01:46:47.536Z,0
2017-04-12T01:47:28.123Z,0
2017-04-12T01:48:08.707Z,0
2017-04-12T01:48:49.285Z,0
2017-04-12T01:49:29.864Z,0
2017-04-12T01:50:10.455Z,0
2017-04-12T01:50:51.025Z,0
2017-04-12T01:51:31.607Z,0
2017-04-12T01:52:12.193Z,0
2017-04-12T01:52:52.779Z,0
2017-04-12T01:53:33.355Z,0
2017-04-12T01:54:13.942Z,0
2017-04-12T01:54:54.535Z,0
2017-04-12T01:55:35.080Z,0
2017-04-12T01:56:15.655Z,0
2017-04-12T01:56:56.228Z,0
2017-04-12T01:57:36.810Z,0
2017-04-12T01:58:17.396Z,0
2017-04-12T01:58:57.975Z,0
2017-04-12T01:59:38.559Z,0
2017-04-12T02:00:19.139Z,0
2017-04-12T02:00:59.722Z,0
2017-04-12T02:01:40.301Z,0
2017-04-12T02:02:20.888Z,0
2017-04-12T02:03:18.463Z,0
2017-04-12T02:03:59.080Z,0
2017-04-12T02:04:39.630Z,0
2017-04-12T02:05:20.212Z,0
2017-04-12T02:06:00.785Z,0
2017-04-12T02:06:41.382Z,0
2017-04-12T02:07:21.960Z,0
2017-04-12T02:08:02.541Z,0
2017-04-12T02:08:43.126Z,0
2017-04-12T02:09:23.709Z,0
2017-04-12T02:10:04.292Z,0
2017-04-12T02:10:44.872Z,0
2017-04-12T02:11:25.460Z,0
2017-04-12T02:13:23.168Z,0
2017-04-12T02:14:03.743Z,0
2017-04-12T02:14:44.335Z,0
2017-04-12T02:15:24.920Z,0
2017-04-12T02:16:05.501Z,0
2017-04-12T02:16:46.117Z,0
2017-04-12T02:17:26.668Z,0
2017-04-12T02:18:07.248Z,0
2017-04-12T02:18:47.840Z,0
2017-04-12T02:19:28.403Z,0
2017-04-12T02:20:08.981Z,0
2017-04-12T02:20:49.562Z,0
2017-04-12T02:21:30.140Z,0
2017-04-12T02:22:10.728Z,0
2017-04-12T02:22:51.405Z,0
2017-04-12T02:23:31.975Z,0
2017-04-12T02:24:12.553Z,0
2017-04-12T02:24:53.151Z,0
2017-04-12T02:25:33.692Z,0
2017-04-12T02:26:14.264Z,0
2017-04-12T02:26:54.849Z,0
2017-04-12T02:27:35.423Z,0
2017-04-12T02:28:16.003Z,0
2017-04-12T02:28:56.589Z,0
2017-04-12T02:29:51.696Z,0
2017-04-12T02:30:32.280Z,0
2017-04-12T02:31:12.860Z,0
2017-04-12T02:31:53.443Z,0
2017-04-12T02:32:34.031Z,0
2017-04-12T02:33:14.593Z,0
2017-04-12T02:33:55.176Z,0
2017-04-12T02:34:35.756Z,0
2017-04-12T02:35:16.337Z,0
2017-04-12T02:37:49.526Z,0
2017-04-12T02:38:30.104Z,0
2017-04-12T02:39:10.684Z,0
2017-04-12T02:39:51.262Z,0
2017-04-12T02:40:31.842Z,0
2017-04-12T02:41:12.427Z,0
2017-04-12T02:41:53.004Z,0
2017-04-12T02:42:33.588Z,0
2017-04-12T02:43:14.166Z,0
2017-04-12T02:43:54.744Z,0
2017-04-12T02:44:35.362Z,0
2017-04-12T02:45:15.906Z,0
2017-04-12T02:45:56.469Z,0
2017-04-12T02:46:37.045Z,0
2017-04-12T02:47:17.632Z,0
2017-04-12T02:47:58.221Z,0
2017-04-12T02:48:38.792Z,0
2017-04-12T02:49:20.469Z,0
2017-04-12T02:50:00.279Z,0
2017-04-12T02:50:40.842Z,0
2017-04-12T02:51:21.426Z,0
2017-04-12T02:52:02.008Z,0
2017-04-12T02:52:42.593Z,0
2017-04-12T02:53:23.168Z,0
2017-04-12T02:54:03.748Z,0
2017-04-12T02:54:44.326Z,0
2017-04-12T02:55:24.902Z,0
2017-04-12T02:56:05.477Z,0
2017-04-12T02:56:46.050Z,0
2017-04-12T02:57:26.639Z,0
2017-04-12T02:58:07.220Z,0
2017-04-12T02:58:47.796Z,0
2017-04-12T02:59:28.366Z,0
2017-04-12T03:00:08.958Z,0
2017-04-12T03:00:49.536Z,0
2017-04-12T03:01:30.120Z,0
2017-04-12T03:02:10.715Z,0
2017-04-12T03:02:51.290Z,0
2017-04-12T03:03:31.880Z,0
2017-04-12T03:04:12.463Z,0
2017-04-12T03:04:53.052Z,0
2017-04-12T03:05:33.627Z,0
2017-04-12T03:06:14.210Z,0
2017-04-12T03:06:54.790Z,0
2017-04-12T03:07:35.373Z,0
2017-04-12T03:08:15.954Z,0
2017-04-12T03:08:56.534Z,0
2017-04-12T03:09:37.115Z,0
2017-04-12T03:10:17.696Z,0
2017-04-12T03:10:58.322Z,0
2017-04-12T03:11:38.862Z,0
2017-04-12T03:12:19.440Z,0
2017-04-12T03:13:00.015Z,0
2017-04-12T03:13:40.606Z,0
2017-04-12T03:14:21.192Z,0
2017-04-12T03:15:01.781Z,0
2017-04-12T03:15:42.366Z,0
2017-04-12T03:16:22.951Z,0
2017-04-12T03:17:03.537Z,0
2017-04-12T03:17:44.117Z,0
2017-04-12T03:18:24.695Z,0
2017-04-12T03:19:05.275Z,0
2017-04-12T03:19:45.854Z,0
2017-04-12T03:20:26.547Z,0
2017-04-12T03:21:07.123Z,0
2017-04-12T03:21:47.709Z,0
2017-04-12T03:22:28.296Z,0
2017-04-12T03:23:14.762Z,0
2017-04-12T03:23:55.343Z,0
2017-04-12T03:24:35.926Z,0
2017-04-12T03:25:16.511Z,0
2017-04-12T03:25:57.277Z,0
2017-04-12T03:26:38.129Z,0
2017-04-12T03:27:18.812Z,0
2017-04-12T03:27:59.610Z,0
2017-04-12T03:28:40.456Z,0
2017-04-12T03:29:21.252Z,0
2017-04-12T03:30:02.082Z,0
2017-04-12T03:30:42.857Z,0
2017-04-12T03:31:23.627Z,0
2017-04-12T03:32:04.558Z,0
2017-04-12T03:32:45.224Z,0
2017-04-12T03:33:25.955Z,0
2017-04-12T03:34:06.695Z,0
2017-04-12T03:34:47.625Z,0
2017-04-12T03:35:28.400Z,0
2017-04-12T03:36:08.968Z,0
2017-04-12T03:36:49.895Z,0
2017-04-12T03:37:30.683Z,0
2017-04-12T03:38:11.713Z,0
2017-04-12T03:38:52.295Z,0
2017-04-12T03:39:32.877Z,0
2017-04-12T03:40:13.709Z,0
2017-04-12T03:40:54.647Z,0
2017-04-12T03:41:35.794Z,0
2017-04-12T03:42:16.951Z,0
2017-04-12T03:42:57.815Z,0
2017-04-12T03:43:38.399Z,0
2017-04-12T03:44:19.427Z,0
2017-04-12T03:45:00.579Z,0
2017-04-12T03:45:41.385Z,0
2017-04-12T03:46:22.106Z,0
2017-04-12T03:47:02.672Z,0
2017-04-12T03:47:43.243Z,0
2017-04-12T03:48:23.829Z,0
2017-04-12T03:49:04.584Z,0
2017-04-12T03:49:45.352Z,0
2017-04-12T03:50:25.935Z,0
2017-04-12T03:51:06.519Z,0
2017-04-12T03:51:47.088Z,0
2017-04-12T03:52:27.677Z,0
2017-04-12T03:53:08.262Z,0
2017-04-12T03:53:48.842Z,0
2017-04-12T03:54:29.423Z,0
2017-04-12T03:55:10.011Z,0
2017-04-12T03:55:50.589Z,0
2017-04-12T03:56:31.164Z,0
2017-04-12T03:57:11.749Z,0
2017-04-12T03:57:52.318Z,0
2017-04-12T03:58:32.909Z,0
2017-04-12T03:59:13.485Z,0
2017-04-12T03:59:54.070Z,0
2017-04-12T04:00:34.637Z,0
2017-04-12T04:01:15.221Z,0
2017-04-12T04:01:55.800Z,0
2017-04-12T04:02:36.381Z,0
2017-04-12T04:03:16.955Z,0
2017-04-12T04:03:57.539Z,0
2017-04-12T04:04:38.117Z,0
2017-04-12T04:05:18.702Z,0
2017-04-12T04:05:59.284Z,4
2017-04-12T04:06:39.865Z,4
2017-04-12T04:07:20.443Z,4
2017-04-12T04:09:18.146Z,4
2017-04-12T04:09:58.719Z,4
2017-04-12T04:10:39.304Z,8
2017-04-12T04:11:19.883Z,8
2017-04-12T04:12:00.466Z,8
2017-04-12T04:12:41.049Z,8
2017-04-12T04:13:21.628Z,8
2017-04-12T04:15:39.548Z,12
2017-04-12T04:16:20.129Z,16
2017-04-12T04:17:00.707Z,16
2017-04-12T04:17:41.285Z,20
2017-04-12T04:18:36.744Z,24
2017-04-12T04:19:17.325Z,28
2017-04-12T04:19:57.895Z,28
2017-04-12T04:20:38.479Z,32
2017-04-12T04:21:19.054Z,36
2017-04-12T04:21:59.626Z,40
2017-04-12T04:22:40.208Z,44
2017-04-12T04:23:20.791Z,44
2017-04-12T04:24:01.375Z,48
2017-04-12T04:24:41.958Z,52
2017-04-12T04:25:22.534Z,56
2017-04-12T04:26:03.110Z,60
2017-04-12T04:26:44.573Z,64
2017-04-12T04:27:25.154Z,72
2017-04-12T04:28:05.728Z,72
2017-04-12T04:28:46.311Z,80
2017-04-12T04:29:26.893Z,84
2017-04-12T04:30:07.470Z,88
2017-04-12T04:30:48.047Z,96
2017-04-12T04:31:28.631Z,104
2017-04-12T04:32:09.197Z,112
2017-04-12T04:32:49.775Z,120
2017-04-12T04:33:30.348Z,124
2017-04-12T04:34:10.935Z,140
2017-04-12T04:34:51.516Z,148
2017-04-12T04:35:32.128Z,160
2017-04-12T04:36:12.709Z,172
2017-04-12T04:36:53.278Z,188
2017-04-12T04:37:33.859Z,200
2017-04-12T04:38:14.434Z,220
2017-04-12T04:38:55.005Z,236
2017-04-12T04:39:35.587Z,252
2017-04-12T04:40:16.164Z,272
2017-04-12T04:40:56.751Z,288
2017-04-12T04:41:37.333Z,312
2017-04-12T04:42:17.921Z,332
2017-04-12T04:42:58.498Z,356
2017-04-12T04:43:39.067Z,380
2017-04-12T04:44:19.643Z,404
2017-04-12T04:45:00.226Z,432
2017-04-12T04:45:40.814Z,452
2017-04-12T04:46:21.397Z,476
2017-04-12T04:47:01.979Z,500
2017-04-12T04:47:42.553Z,524
2017-04-12T04:48:23.134Z,548
2017-04-12T04:49:03.708Z,568
2017-04-12T04:49:44.277Z,592
2017-04-12T04:50:24.861Z,620
2017-04-12T04:51:05.434Z,640
2017-04-12T04:51:46.010Z,652
2017-04-12T04:52:41.449Z,672
2017-04-12T04:53:22.029Z,684
2017-04-12T04:54:02.607Z,696
2017-04-12T04:54:43.183Z,716
2017-04-12T04:55:23.767Z,728
2017-04-12T04:56:04.350Z,744
2017-04-12T04:56:44.924Z,764
2017-04-12T04:57:25.503Z,784
2017-04-12T04:58:06.082Z,808
2017-04-12T04:58:46.660Z,832
2017-04-12T04:59:27.230Z,852
2017-04-12T05:00:07.806Z,876
2017-04-12T05:00:48.380Z,904
2017-04-12T05:01:28.971Z,932
2017-04-12T05:02:09.537Z,968
2017-04-12T05:02:50.124Z,1004
2017-04-12T05:03:30.710Z,1040
2017-04-12T05:04:11.284Z,1080
2017-04-12T05:04:51.861Z,1120
2017-04-12T05:05:32.445Z,1152
2017-04-12T05:08:05.622Z,1272
2017-04-12T05:08:46.202Z,1304
2017-04-12T05:09:26.779Z,1344
2017-04-12T05:11:44.675Z,1524
2017-04-12T05:12:25.253Z,1592
2017-04-12T05:13:05.835Z,1664
2017-04-12T05:13:46.415Z,1748
2017-04-12T05:14:26.997Z,1832
2017-04-12T05:15:07.578Z,1920
2017-04-12T05:15:48.158Z,2004
2017-04-12T05:16:28.734Z,2084
2017-04-12T05:17:09.318Z,2160
2017-04-12T05:17:49.889Z,2232
2017-04-12T05:18:30.465Z,2300
2017-04-12T05:19:11.047Z,2356
2017-04-12T05:19:51.629Z,2412
2017-04-12T05:20:32.212Z,2464
2017-04-12T05:21:12.782Z,2520
2017-04-12T05:21:53.368Z,2576
2017-04-12T05:24:26.784Z,2832
2017-04-12T05:25:07.360Z,2912
2017-04-12T05:25:47.947Z,2992
2017-04-12T05:26:28.526Z,3080
2017-04-12T05:27:09.113Z,3168
2017-04-12T05:27:49.690Z,3260
2017-04-12T05:28:30.266Z,3340
2017-04-12T05:29:10.841Z,3408
2017-04-12T05:29:51.419Z,3464
2017-04-12T05:30:32.003Z,3520
2017-04-12T05:31:12.575Z,3564
2017-04-12T05:31:53.153Z,3620
2017-04-12T05:32:33.735Z,3684
2017-04-12T05:33:14.317Z,3764
2017-04-12T05:34:10.728Z,3872
2017-04-12T05:34:51.313Z,3948
2017-04-12T05:35:31.886Z,4048
2017-04-12T05:36:12.463Z,4156
2017-04-12T05:36:53.044Z,4280
2017-04-12T05:37:33.626Z,4408
2017-04-12T05:38:14.203Z,4308
2017-04-12T05:38:54.777Z,4396
2017-04-12T05:39:35.345Z,4464
2017-04-12T05:40:15.934Z,4524
2017-04-12T05:40:56.511Z,4596
2017-04-12T05:41:37.088Z,4680
2017-04-12T05:42:17.662Z,4784
2017-04-12T05:42:58.246Z,4896
2017-04-12T05:43:38.816Z,5004
2017-04-12T05:44:19.395Z,5084
2017-04-12T05:44:59.980Z,5132
2017-04-12T05:45:40.563Z,5152
2017-04-12T05:46:21.145Z,5152
2017-04-12T05:47:01.726Z,5148
2017-04-12T05:47:42.306Z,5144
2017-04-12T05:48:22.876Z,5140
2017-04-12T05:49:03.460Z,5140
2017-04-12T05:49:44.037Z,5136
2017-04-12T05:50:39.482Z,5124
2017-04-12T05:51:20.063Z,5136
2017-04-12T05:52:00.633Z,5144
2017-04-12T05:52:41.214Z,5152
2017-04-12T05:53:21.796Z,5144
2017-04-12T05:54:02.379Z,5108
2017-04-12T05:54:42.963Z,5052
2017-04-12T05:55:23.539Z,4988
2017-04-12T05:56:04.132Z,4912
2017-04-12T05:56:44.709Z,4828
2017-04-12T05:57:25.290Z,4736
2017-04-12T05:58:05.870Z,4640
2017-04-12T05:58:46.455Z,4552
2017-04-12T05:59:27.033Z,4476
2017-04-12T06:00:22.484Z,4420
2017-04-12T06:01:03.057Z,4396
2017-04-12T06:01:43.646Z,4400
2017-04-12T06:02:24.223Z,4424
2017-04-12T06:03:04.805Z,4464
2017-04-12T06:03:45.384Z,4524
2017-04-12T06:04:25.968Z,4600
2017-04-12T06:05:06.541Z,4704
2017-04-12T06:05:47.119Z,4840
2017-04-12T06:06:27.686Z,5036
2017-04-12T06:07:08.275Z,5264
2017-04-12T06:07:48.860Z,5556
2017-04-12T06:08:29.438Z,5900
2017-04-12T06:09:10.027Z,6192
2017-04-12T06:09:50.612Z,6572
2017-04-12T06:10:31.195Z,7216
2017-04-12T06:11:11.770Z,7932
2017-04-12T06:11:52.343Z,8404
2017-04-12T06:12:32.927Z,9148
2017-04-12T06:13:13.503Z,9916
2017-04-12T06:13:54.093Z,10652
2017-04-12T06:14:34.673Z,11368
2017-04-12T06:15:15.250Z,11816
2017-04-12T06:15:55.833Z,12388
2017-04-12T06:16:36.417Z,13260
2017-04-12T06:17:16.995Z,14088
2017-04-12T06:17:57.570Z,19968
2017-04-12T06:18:38.154Z,20800
2017-04-12T06:19:18.740Z,21664
2017-04-12T06:19:59.318Z,17952
2017-04-12T06:20:39.899Z,19584
2017-04-12T06:21:20.484Z,18848
2017-04-12T06:22:01.060Z,18912
2017-04-12T06:22:41.639Z,16468
2017-04-12T06:23:22.221Z,15076
2017-04-12T06:24:02.778Z,13460
2017-04-12T06:24:43.364Z,13596
2017-04-12T06:25:23.940Z,12672
2017-04-12T06:26:04.522Z,11844
2017-04-12T06:26:45.112Z,12416
2017-04-12T06:27:25.677Z,11380
2017-04-12T06:28:06.253Z,10788
2017-04-12T06:28:46.834Z,11012
2017-04-12T06:29:27.416Z,12092
2017-04-12T06:30:07.987Z,12200
2017-04-12T06:30:48.571Z,13844
2017-04-12T06:31:29.151Z,13976
2017-04-12T06:32:09.730Z,12976
2017-04-12T06:32:50.314Z,15024
2017-04-12T06:33:30.899Z,12860
2017-04-12T06:34:11.484Z,17760
2017-04-12T06:34:52.065Z,13556
2017-04-12T06:35:32.634Z,13840
2017-04-12T06:36:13.209Z,12864
2017-04-12T06:36:53.783Z,12672
2017-04-12T06:37:34.353Z,12468
2017-04-12T06:38:14.923Z,12312
2017-04-12T06:38:55.516Z,12272
2017-04-12T06:39:36.096Z,12384
2017-04-12T06:40:16.678Z,13512
2017-04-12T06:40:57.265Z,13260
2017-04-12T06:41:37.842Z,14168
2017-04-12T06:42:18.427Z,16612
2017-04-12T06:42:59.011Z,20992
2017-04-12T06:43:39.597Z,15952
2017-04-12T06:44:20.180Z,23968
2017-04-12T06:45:00.752Z,16080
2017-04-12T06:45:41.347Z,18112
2017-04-12T06:46:21.929Z,18272
2017-04-12T06:47:02.508Z,20160
2017-04-12T06:47:43.094Z,24288
2017-04-12T06:48:23.674Z,23264
2017-04-12T06:49:04.249Z,30752
2017-04-12T06:49:44.835Z,37760
2017-04-12T06:50:25.413Z,36864
2017-04-12T06:51:06.004Z,32480
2017-04-12T06:51:46.581Z,47200
2017-04-12T06:52:27.158Z,46944
2017-04-12T06:53:07.738Z,44544
2017-04-12T06:53:48.311Z,46080
2017-04-12T06:54:28.899Z,42368
2017-04-12T06:56:26.617Z,45440
2017-04-12T06:57:07.190Z,45856
2017-04-12T06:57:47.771Z,39776
2017-04-12T06:58:28.348Z,33760
2017-04-12T06:59:08.924Z,31072
2017-04-12T06:59:49.501Z,31072
2017-04-12T07:00:30.099Z,28256
2017-04-12T07:01:10.680Z,27168
2017-04-12T07:01:51.257Z,24928
2017-04-12T07:02:31.844Z,24192
2017-04-12T07:03:12.427Z,25312
2017-04-12T07:03:53.004Z,25248
2017-04-12T07:04:33.585Z,24608
2017-04-12T07:05:14.159Z,24448
2017-04-12T07:05:54.731Z,24192
2017-04-12T07:06:35.321Z,24096
2017-04-12T07:07:15.905Z,21920
2017-04-12T07:07:56.494Z,21888
2017-04-12T07:08:37.081Z,22624
2017-04-12T07:09:17.664Z,24000
2017-04-12T07:09:58.248Z,26528
2017-04-12T07:10:38.830Z,25152
2017-04-12T07:11:19.414Z,24384
2017-04-12T07:11:59.997Z,24352
2017-04-12T07:12:40.581Z,23744
2017-04-12T07:13:21.167Z,22464
2017-04-12T07:14:01.746Z,21248
2017-04-12T07:14:42.331Z,19296
2017-04-12T07:15:22.920Z,19616
2017-04-12T07:16:03.506Z,19456
2017-04-12T07:16:44.097Z,19872
2017-04-12T07:17:24.680Z,19968
2017-04-12T07:18:05.267Z,19040
2017-04-12T07:18:45.846Z,17760
2017-04-12T07:19:26.432Z,17188
2017-04-12T07:20:07.013Z,18368
2017-04-12T07:20:47.597Z,20160
2017-04-12T07:21:28.180Z,20960
2017-04-12T07:22:08.760Z,21792
2017-04-12T07:22:49.344Z,20288
2017-04-12T07:23:29.924Z,20032
2017-04-12T07:25:27.632Z,25632
2017-04-12T07:26:08.219Z,24256
2017-04-12T07:26:48.801Z,24896
2017-04-12T07:27:29.381Z,30272
2017-04-12T07:28:09.958Z,35008
2017-04-12T07:28:50.538Z,33824
2017-04-12T07:29:31.125Z,34016
2017-04-12T07:30:11.697Z,33088
2017-04-12T07:30:52.278Z,34816
2017-04-12T07:31:32.861Z,35872
2017-04-12T07:32:13.454Z,33664
2017-04-12T07:32:54.041Z,36096
2017-04-12T07:33:34.622Z,36192
2017-04-12T07:34:15.199Z,32032
2017-04-12T07:34:55.782Z,28608
2017-04-12T07:35:36.363Z,26848
2017-04-12T07:36:16.946Z,26528
2017-04-12T07:36:57.521Z,26496
2017-04-12T07:37:38.097Z,26016
2017-04-12T07:38:18.680Z,27712
2017-04-12T07:38:59.266Z,29984
2017-04-12T07:39:39.846Z,30688
2017-04-12T07:40:20.436Z,33632
2017-04-12T07:41:01.024Z,35776
2017-04-12T07:41:41.606Z,38976
2017-04-12T07:42:22.191Z,40704
2017-04-12T07:43:02.777Z,42784
2017-04-12T07:43:43.366Z,45952
2017-04-12T07:44:23.952Z,46080
2017-04-12T07:45:04.530Z,46656
2017-04-12T07:45:45.116Z,45152
2017-04-12T07:46:25.701Z,43296
2017-04-12T07:47:06.290Z,45056
2017-04-12T07:47:46.872Z,46528
2017-04-12T07:48:27.467Z,49344
2017-04-12T07:49:08.036Z,49216
2017-04-12T07:49:48.619Z,48800
2017-04-12T07:50:29.207Z,48736
2017-04-12T07:51:09.792Z,50368
2017-04-12T07:51:50.375Z,50528
2017-04-12T07:52:30.963Z,52864
2017-04-12T07:53:11.548Z,54528
2017-04-12T07:53:52.133Z,54688
2017-04-12T07:54:32.723Z,57120
2017-04-12T07:55:13.304Z,59584
2017-04-12T07:55:53.896Z,59264
2017-04-12T07:56:34.474Z,60288
2017-04-12T07:57:15.058Z,61664
2017-04-12T07:57:55.645Z,59456
2017-04-12T07:58:36.227Z,56704
2017-04-12T07:59:16.812Z,49216
2017-04-12T08:01:34.748Z,43488
2017-04-12T08:02:15.337Z,41248
2017-04-12T08:02:55.927Z,36352
2017-04-12T08:03:36.506Z,32384
2017-04-12T08:04:17.097Z,29216
2017-04-12T08:04:57.682Z,28704
2017-04-12T08:05:38.260Z,29024
2017-04-12T08:06:18.855Z,30144
2017-04-12T08:06:59.439Z,31552
2017-04-12T08:07:40.015Z,29728
2017-04-12T08:08:20.614Z,32480
2017-04-12T08:09:01.194Z,31264
2017-04-12T08:09:41.772Z,30144
2017-04-12T08:10:22.351Z,29760
2017-04-12T08:11:02.932Z,29888
2017-04-12T08:11:43.512Z,30528
2017-04-12T08:12:24.103Z,32640
2017-04-12T08:13:04.689Z,34880
2017-04-12T08:13:45.273Z,39264
2017-04-12T08:14:25.852Z,45152
2017-04-12T08:15:06.439Z,46656
2017-04-12T08:15:47.013Z,47968
2017-04-12T08:16:27.595Z,46880
2017-04-12T08:17:08.185Z,45408
2017-04-12T08:17:48.760Z,46496
2017-04-12T08:18:29.344Z,48544
2017-04-12T08:19:09.925Z,51040
2017-04-12T08:19:50.509Z,54880
2017-04-12T08:20:31.087Z,58336
2017-04-12T08:21:11.674Z,59328
2017-04-12T08:21:52.251Z,60928
2017-04-12T08:22:32.832Z,57472
2017-04-12T08:23:13.418Z,55360
2017-04-12T08:23:54.001Z,52992
2017-04-12T08:24:34.579Z,50368
2017-04-12T08:25:15.161Z,49568
2017-04-12T08:25:55.745Z,50720
2017-04-12T08:26:36.322Z,50016
2017-04-12T08:27:16.893Z,46272
2017-04-12T08:27:57.480Z,42688
2017-04-12T08:30:30.694Z,35744
2017-04-12T08:31:11.261Z,36608
2017-04-12T08:31:51.841Z,36928
2017-04-12T08:32:32.421Z,36864
2017-04-12T08:33:13.009Z,40224
2017-04-12T08:33:53.588Z,38432
2017-04-12T08:34:34.163Z,38912
2017-04-12T08:35:14.755Z,37280
2017-04-12T08:35:55.331Z,38784
2017-04-12T08:36:35.918Z,40320
2017-04-12T08:37:16.502Z,39328
2017-04-12T08:37:57.085Z,39616
2017-04-12T08:38:37.663Z,40192
2017-04-12T08:39:18.253Z,41664
2017-04-12T08:39:58.819Z,45824
2017-04-12T08:40:39.394Z,44224
2017-04-12T08:41:19.975Z,45952
2017-04-12T08:42:00.555Z,43840
2017-04-12T08:42:41.141Z,41888
2017-04-12T08:43:21.726Z,37632
2017-04-12T08:44:02.313Z,34880
2017-04-12T08:44:42.888Z,33408
2017-04-12T08:45:23.480Z,31360
2017-04-12T08:46:04.054Z,31168
2017-04-12T08:46:44.641Z,31776
2017-04-12T08:47:25.224Z,28832
2017-04-12T08:48:05.815Z,26464
2017-04-12T08:48:46.397Z,28224
2017-04-12T08:49:26.986Z,26272
2017-04-12T08:50:07.575Z,24032
2017-04-12T08:50:48.151Z,22816
2017-04-12T08:51:28.750Z,22176
2017-04-12T08:52:09.320Z,21984
2017-04-12T08:52:49.915Z,21984
2017-04-12T08:53:30.494Z,21984
2017-04-12T08:54:11.073Z,22016
2017-04-12T08:54:51.658Z,22048
2017-04-12T08:55:32.250Z,22016
2017-04-12T08:56:12.834Z,21920
2017-04-12T08:56:53.420Z,21664
2017-04-12T08:57:33.992Z,21504
2017-04-12T08:58:14.563Z,21472
2017-04-12T08:58:55.160Z,21216
2017-04-12T08:59:35.722Z,21056
2017-04-12T09:00:16.314Z,20992
2017-04-12T09:00:56.889Z,20800
2017-04-12T09:01:37.485Z,20800
2017-04-12T09:02:18.065Z,20832
2017-04-12T09:02:58.664Z,20832
2017-04-12T09:03:39.245Z,20768
2017-04-12T09:04:19.827Z,20896
2017-04-12T09:05:00.410Z,21024
2017-04-12T09:05:40.990Z,21184
2017-04-12T09:06:21.574Z,21280
2017-04-12T09:07:02.162Z,21120
2017-04-12T09:07:42.745Z,21056
2017-04-12T09:08:23.331Z,20960
2017-04-12T09:09:03.903Z,20736
2017-04-12T09:09:44.500Z,20672
2017-04-12T09:10:25.083Z,20640
2017-04-12T09:11:05.668Z,20608
2017-04-12T09:11:46.257Z,20512
2017-04-12T09:12:26.838Z,20416
2017-04-12T09:13:07.429Z,20224
2017-04-12T09:13:48.015Z,19936
2017-04-12T09:14:28.600Z,19936
2017-04-12T09:15:09.185Z,19776
2017-04-12T09:15:49.766Z,19744
2017-04-12T09:17:47.490Z,19552
2017-04-12T09:18:28.071Z,19456
2017-04-12T09:19:08.656Z,19424
2017-04-12T09:19:49.229Z,19360
2017-04-12T09:20:29.815Z,19296
2017-04-12T09:21:10.398Z,19040
2017-04-12T09:21:50.986Z,18976
2017-04-12T09:22:31.565Z,19104
2017-04-12T09:23:12.142Z,19104
2017-04-12T09:23:52.720Z,19008
2017-04-12T09:24:33.305Z,19008
2017-04-12T09:25:13.890Z,18944
2017-04-12T09:25:54.481Z,18848
2017-04-12T09:26:35.052Z,18384
2017-04-12T09:27:15.627Z,18260
2017-04-12T09:27:56.211Z,18224
2017-04-12T09:28:36.795Z,18104
2017-04-12T09:29:17.381Z,18016
2017-04-12T09:29:57.971Z,17880
2017-04-12T09:30:38.554Z,17876
2017-04-12T09:31:19.131Z,17788
2017-04-12T09:31:59.713Z,17812
2017-04-12T09:32:40.279Z,17744
2017-04-12T09:33:20.865Z,17560
2017-04-12T09:34:01.458Z,17480
2017-04-12T09:34:42.041Z,17440
2017-04-12T09:35:22.623Z,17488
2017-04-12T09:36:03.211Z,17452
2017-04-12T09:36:43.796Z,17348
2017-04-12T09:37:24.382Z,17280
2017-04-12T09:38:04.964Z,17292
2017-04-12T09:38:45.553Z,17388
2017-04-12T09:41:18.968Z,17152
2017-04-12T09:41:59.548Z,17084
2017-04-12T09:42:40.135Z,17052
2017-04-12T09:43:20.720Z,17148
2017-04-12T09:44:01.305Z,17152
2017-04-12T09:44:41.887Z,17200